MYGF METAR and TAF weather

Enter ICAO airport designator
Station Type Date Time Source
MYGF METAR 2021/07/30 07:00 UTC NOAA

MYGF 300700Z AUTO 15006KT //// R24/P2000N // FEW020 //////CB 28/25 A3001


Station Type Date Time Source
MYGF Decoded METAR 2021/07/30 07:00 UTC NOAA

Freeport, Grand Bahama, Bahamas, The (MYGF) 26-33N 078-42W 11M
Jul 30, 2021 - 03:00 AM EDT / 2021.07.30 0700 UTC
Wind: from the SSE (150 degrees) at 7 MPH (6 KT):0
Sky conditions: mostly clear
Weather: Cumulonimbus clouds observed
Temperature: 82 F (28 C)
Dew Point: 77 F (25 C)
Relative Humidity: 83%
Pressure (altimeter): 30.01 in. Hg (1016 hPa)
ob: MYGF 300700Z AUTO 15006KT //// R24/P2000N // FEW020 //////CB 28/25 A3001
cycle: 7

Station Type Date Time Source
MYGF TAF 2021/07/30 06:49 UTC NOAA

TAF MYGF 300430Z 3006/3106 18004KT 9999 FEW025
BECMG 3012/3014 16008KT

Example: see airport list